Time;durP1;ratioP1;P1;durP2;ratioP2;P2;SDS_P1;SDS_P2;PMS_P1;PMS_P2;Temp;Humidity;BMP_temperature;BMP_pressure;BME280_temperature;BME280_humidity;BME280_pressure;Samples;Min_cycle;Max_cycle;Signal;HPM_P1;HPM_P2
2021/06/24 00:00:50;;;;;;;25.52;20.05;;;;;;;22.24;84.11;98525.97;5034487;28;20610;-61
2021/06/24 00:03:16;;;;;;;28.20;21.05;;;;;;;22.13;84.28;98526.69;5033949;28;20030;-61
2021/06/24 00:05:42;;;;;;;23.42;18.95;;;;;;;22.09;84.50;98520.00;5034156;28;20102;-62
2021/06/24 00:08:09;;;;;;;26.27;20.48;;;;;;;22.04;85.25;98521.25;5035236;28;20028;-61
2021/06/24 00:10:36;;;;;;;26.58;21.80;;;;;;;21.96;85.00;98526.16;5034870;28;20112;-62
2021/06/24 00:13:02;;;;;;;24.98;20.67;;;;;;;21.96;84.47;98529.59;5034860;28;20026;-61
2021/06/24 00:15:28;;;;;;;25.23;20.17;;;;;;;21.89;84.20;98533.53;5034770;28;20028;-61
2021/06/24 00:17:53;;;;;;;24.63;19.55;;;;;;;21.90;84.37;98529.16;5031255;28;20457;-61
2021/06/24 00:20:19;;;;;;;24.80;20.70;;;;;;;21.86;84.73;98529.34;5034443;28;21973;-62
2021/06/24 00:22:44;;;;;;;24.50;21.25;;;;;;;21.85;84.60;98532.06;5034438;28;20343;-62
2021/06/24 00:25:10;;;;;;;28.70;20.73;;;;;;;21.78;85.29;98529.03;5033064;28;20444;-61
2021/06/24 00:27:36;;;;;;;24.45;20.50;;;;;;;21.77;86.01;98534.31;5033618;28;20055;-61
2021/06/24 00:30:02;;;;;;;25.52;21.52;;;;;;;21.74;86.39;98538.00;5035455;28;20282;-61
2021/06/24 00:32:28;;;;;;;24.23;20.50;;;;;;;21.72;86.52;98537.28;5036455;28;20079;-61
2021/06/24 00:34:59;;;;;;;25.38;20.52;;;;;;;21.68;86.69;98534.97;5033160;28;20298;-61
2021/06/24 00:37:25;;;;;;;28.88;21.75;;;;;;;21.73;86.75;98541.53;5033656;28;20033;-61
2021/06/24 00:39:50;;;;;;;22.45;19.88;;;;;;;21.72;86.66;98532.06;5032324;28;20098;-62
2021/06/24 00:42:16;;;;;;;23.63;20.50;;;;;;;21.74;86.49;98534.53;5034247;28;20075;-60
2021/06/24 00:44:41;;;;;;;28.70;21.88;;;;;;;21.73;86.46;98531.09;5034905;28;20120;-61
2021/06/24 00:47:07;;;;;;;24.75;21.05;;;;;;;21.71;86.37;98529.53;5032314;28;20109;-61
2021/06/24 00:49:33;;;;;;;25.27;20.38;;;;;;;21.69;86.55;98524.41;5034967;28;20413;-61
2021/06/24 00:51:58;;;;;;;25.23;21.13;;;;;;;21.65;86.80;98520.31;5036472;28;20056;-61
2021/06/24 00:54:23;;;;;;;26.85;20.15;;;;;;;21.61;86.71;98516.25;5032512;28;20071;-61
2021/06/24 00:56:49;;;;;;;26.08;20.80;;;;;;;21.58;86.78;98513.84;5035433;28;20290;-62
2021/06/24 00:59:15;;;;;;;22.38;18.65;;;;;;;21.61;86.88;98515.41;5032875;28;20052;-61
2021/06/24 01:01:40;;;;;;;24.38;20.73;;;;;;;21.59;87.14;98507.69;5034317;28;20026;-61
2021/06/24 01:04:06;;;;;;;23.15;20.67;;;;;;;21.58;87.03;98505.16;5034228;28;20639;-61
2021/06/24 01:06:31;;;;;;;25.67;22.73;;;;;;;21.56;87.30;98505.25;5035760;28;20021;-61
2021/06/24 01:08:57;;;;;;;23.63;20.67;;;;;;;21.55;87.16;98501.00;5033675;28;20065;-62
2021/06/24 01:11:23;;;;;;;27.95;21.33;;;;;;;21.57;86.87;98506.94;5036620;28;20725;-61
2021/06/24 01:13:50;;;;;;;28.60;21.98;;;;;;;21.58;86.87;98500.78;5033395;28;20029;-61
2021/06/24 01:16:16;;;;;;;24.08;19.40;;;;;;;21.61;86.53;98504.97;5031432;28;20040;-61
2021/06/24 01:18:42;;;;;;;27.25;22.10;;;;;;;21.58;86.67;98497.34;5032902;28;20650;-61
2021/06/24 01:21:07;;;;;;;28.25;21.58;;;;;;;21.66;86.49;98490.69;5032915;28;20037;-61
2021/06/24 01:23:38;;;;;;;25.38;21.13;;;;;;;21.75;85.88;98484.84;5035061;28;20017;-62
2021/06/24 01:26:04;;;;;;;25.42;20.88;;;;;;;21.70;86.04;98489.53;5030850;28;20427;-62
2021/06/24 01:28:29;;;;;;;28.63;22.20;;;;;;;21.63;85.92;98475.25;5035971;28;20033;-62
2021/06/24 01:30:55;;;;;;;26.00;20.33;;;;;;;21.63;86.03;98485.69;5035359;28;20575;-62
2021/06/24 01:33:24;;;;;;;27.67;20.55;;;;;;;21.64;86.17;98489.94;5039989;28;20032;-62
2021/06/24 01:35:56;;;;;;;23.42;20.77;;;;;;;21.64;86.17;98489.94;5037884;28;20033;-62
2021/06/24 01:38:22;;;;;;;27.42;20.58;;;;;;;21.57;86.38;98487.84;5036165;28;20029;-62
2021/06/24 01:40:47;;;;;;;27.85;20.20;;;;;;;21.54;86.95;98486.28;5035147;28;20044;-61
2021/06/24 01:43:12;;;;;;;23.67;20.33;;;;;;;21.51;86.82;98485.66;5036780;28;20083;-61
2021/06/24 01:45:49;;;;;;;22.80;20.38;;;;;;;21.57;86.92;98491.28;5034792;28;20088;-62
2021/06/24 01:48:15;;;;;;;20.60;18.08;;;;;;;21.49;87.16;98484.91;5037892;28;20061;-62
2021/06/24 01:50:42;;;;;;;26.23;20.05;;;;;;;21.52;86.96;98490.75;5036193;28;20063;-62
2021/06/24 01:53:07;;;;;;;24.17;20.58;;;;;;;21.53;86.71;98488.97;5036865;28;20036;-62
2021/06/24 01:55:34;;;;;;;22.70;19.08;;;;;;;21.53;86.39;98494.19;5038663;28;20120;-62
2021/06/24 01:58:00;;;;;;;20.65;17.80;;;;;;;21.57;86.19;98487.84;5037610;28;20056;-61
2021/06/24 02:00:26;;;;;;;21.05;18.83;;;;;;;21.62;85.09;98478.78;5037190;28;20087;-61
2021/06/24 02:02:52;;;;;;;20.65;17.45;;;;;;;21.65;84.78;98483.78;5035609;28;20654;-62
2021/06/24 02:05:17;;;;;;;31.48;18.75;;;;;;;21.65;84.45;98477.72;5036797;28;20026;-60
2021/06/24 02:07:43;;;;;;;22.70;17.50;;;;;;;21.61;84.62;98473.66;5037385;28;20349;-61
2021/06/24 02:10:10;;;;;;;25.92;19.95;;;;;;;21.62;84.51;98484.00;5035476;28;20103;-61
2021/06/24 02:12:36;;;;;;;24.85;19.17;;;;;;;21.60;84.11;98480.63;5036415;28;20508;-62
2021/06/24 02:15:07;;;;;;;21.02;18.92;;;;;;;21.58;84.29;98486.91;5035474;28;20048;-61
2021/06/24 02:17:33;;;;;;;28.23;20.35;;;;;;;21.52;84.27;98493.34;5037006;28;20040;-61
2021/06/24 02:19:59;;;;;;;25.48;20.23;;;;;;;21.50;84.13;98491.78;5038086;28;20107;-62
2021/06/24 02:22:25;;;;;;;27.38;22.17;;;;;;;21.40;84.50;98494.16;5034458;28;20329;-61
2021/06/24 02:24:50;;;;;;;23.65;21.20;;;;;;;21.28;85.40;98497.56;5035208;28;20120;-60
2021/06/24 02:27:16;;;;;;;27.40;22.15;;;;;;;21.35;84.91;98494.47;5036036;28;20033;-61
2021/06/24 02:29:41;;;;;;;24.92;20.02;;;;;;;21.27;85.07;98483.69;5035858;28;20271;-61
2021/06/24 02:32:07;;;;;;;26.20;20.50;;;;;;;21.22;85.70;98493.56;5038134;28;20116;-61
2021/06/24 02:34:33;;;;;;;24.98;21.65;;;;;;;21.18;86.30;98493.88;5034543;28;20029;-61
2021/06/24 02:36:59;;;;;;;26.77;22.08;;;;;;;21.11;86.70;98482.13;5033481;28;20029;-61
2021/06/24 02:39:24;;;;;;;25.95;22.30;;;;;;;21.12;86.57;98482.06;5038840;28;20279;-61
2021/06/24 02:41:49;;;;;;;25.67;20.48;;;;;;;21.07;86.90;98478.06;5036127;28;20386;-62
2021/06/24 02:44:15;;;;;;;26.10;20.85;;;;;;;20.94;87.43;98478.84;5035169;28;20142;-61
2021/06/24 02:46:41;;;;;;;24.23;20.42;;;;;;;20.93;87.90;98479.75;5034835;28;20074;-61
2021/06/24 02:49:06;;;;;;;25.00;20.88;;;;;;;20.94;87.81;98483.22;5036791;28;20025;-61
2021/06/24 02:51:32;;;;;;;23.65;20.80;;;;;;;20.91;88.12;98483.41;5037013;28;20037;-61
2021/06/24 02:53:57;;;;;;;25.80;21.58;;;;;;;20.88;88.18;98474.00;5035355;28;20037;-62
2021/06/24 02:56:23;;;;;;;26.48;22.85;;;;;;;20.88;88.15;98475.75;5037197;28;20040;-61
2021/06/24 02:58:49;;;;;;;26.42;22.00;;;;;;;20.87;88.39;98469.75;5037043;28;20033;-61
2021/06/24 03:01:15;;;;;;;26.17;23.38;;;;;;;20.84;88.65;98466.47;5035997;28;20256;-61
2021/06/24 03:03:42;;;;;;;25.10;21.83;;;;;;;20.81;89.01;98464.91;5035231;28;20037;-61
2021/06/24 03:06:07;;;;;;;25.48;21.23;;;;;;;20.78;89.06;98465.09;5034882;28;20083;-62
2021/06/24 03:08:33;;;;;;;26.08;20.77;;;;;;;20.77;89.31;98459.97;5033615;28;20028;-61
2021/06/24 03:10:58;;;;;;;27.42;22.80;;;;;;;20.78;89.48;98454.69;5034555;28;20021;-62
2021/06/24 03:13:24;;;;;;;27.33;21.92;;;;;;;20.79;89.62;98458.94;5036600;28;20057;-62
2021/06/24 03:15:49;;;;;;;28.67;22.63;;;;;;;20.80;89.37;98468.44;5033537;28;20099;-60
2021/06/24 03:18:15;;;;;;;27.10;22.50;;;;;;;20.79;88.85;98471.97;5033142;28;20348;-61
2021/06/24 03:20:40;;;;;;;31.83;22.15;;;;;;;20.85;88.12;98475.97;5035639;28;20045;-61
2021/06/24 03:23:06;;;;;;;25.08;20.95;;;;;;;20.89;87.62;98477.44;5035642;28;20030;-61
2021/06/24 03:25:31;;;;;;;29.55;21.17;;;;;;;20.89;87.46;98477.44;5032713;28;20064;-61
2021/06/24 03:27:57;;;;;;;22.55;19.92;;;;;;;20.83;87.58;98483.06;5035287;28;20083;-61
2021/06/24 03:30:23;;;;;;;24.33;19.25;;;;;;;20.81;87.78;98480.53;5033407;28;20112;-61
2021/06/24 03:32:50;;;;;;;24.08;19.98;;;;;;;20.77;87.62;98480.81;5035897;28;20029;-62
2021/06/24 03:35:16;;;;;;;24.88;17.88;;;;;;;20.84;87.42;98484.72;5034815;28;20029;-61
2021/06/24 03:37:41;;;;;;;22.13;18.00;;;;;;;20.89;87.06;98477.44;5021618;28;20025;-62
2021/06/24 03:40:09;;;;;;;20.65;18.45;;;;;;;20.98;86.76;98482.91;5034900;28;20032;-61
2021/06/24 03:42:35;;;;;;;20.70;17.52;;;;;;;21.01;86.54;98488.84;5035363;28;20033;-61
2021/06/24 03:45:02;;;;;;;19.42;17.40;;;;;;;21.05;86.78;98488.56;5033976;28;20099;-61
2021/06/24 03:47:27;;;;;;;19.60;16.20;;;;;;;21.12;86.55;98489.91;5033869;28;20371;-61
2021/06/24 03:49:52;;;;;;;19.45;17.20;;;;;;;21.18;85.48;98502.53;5036523;28;20048;-61
2021/06/24 03:52:18;;;;;;;20.05;17.75;;;;;;;21.37;83.88;98496.97;5033793;28;20021;-61
2021/06/24 03:54:43;;;;;;;21.88;17.00;;;;;;;21.47;82.83;98502.44;5034884;28;20032;-61
2021/06/24 03:57:09;;;;;;;20.92;16.45;;;;;;;21.60;82.17;98513.75;5035241;28;20061;-61
2021/06/24 03:59:34;;;;;;;20.73;17.60;;;;;;;21.69;81.60;98513.97;5035220;28;20028;-62
2021/06/24 04:02:00;;;;;;;21.23;18.17;;;;;;;21.76;81.50;98528.31;5032647;28;20075;-61
2021/06/24 04:04:25;;;;;;;31.63;18.63;;;;;;;21.84;80.81;98528.63;5032393;28;20270;-61
2021/06/24 04:06:50;;;;;;;23.25;18.40;;;;;;;21.92;80.68;98528.16;5034796;28;20032;-61
2021/06/24 04:09:16;;;;;;;24.63;19.92;;;;;;;21.92;80.16;98527.28;5036508;28;20036;-61
2021/06/24 04:11:42;;;;;;;22.25;18.30;;;;;;;22.00;80.21;98531.06;5034177;28;20404;-61
2021/06/24 04:14:07;;;;;;;24.25;19.52;;;;;;;22.06;79.95;98535.91;5034128;28;20083;-61
2021/06/24 04:16:33;;;;;;;27.13;20.63;;;;;;;22.11;79.47;98543.41;5035950;28;20032;-61
2021/06/24 04:18:58;;;;;;;29.05;19.85;;;;;;;22.23;78.94;98548.66;5032665;28;20052;-61
2021/06/24 04:21:23;;;;;;;27.52;20.70;;;;;;;22.34;78.34;98555.75;5033584;28;20423;-61
2021/06/24 04:23:49;;;;;;;28.88;21.08;;;;;;;22.37;78.34;98550.31;5033567;28;20033;-62
2021/06/24 04:26:15;;;;;;;26.42;18.58;;;;;;;22.47;78.92;98558.38;5036720;28;20370;-61
2021/06/24 04:28:40;;;;;;;25.67;22.60;;;;;;;22.56;78.74;98552.50;5034246;28;20033;-62
2021/06/24 04:31:06;;;;;;;27.05;20.65;;;;;;;22.73;77.55;98547.00;5033527;28;20029;-62
2021/06/24 04:33:33;;;;;;;28.52;20.83;;;;;;;22.63;76.76;98557.22;5034528;28;20056;-61
2021/06/24 04:35:59;;;;;;;31.30;22.45;;;;;;;22.75;75.98;98561.63;5033904;28;20060;-61
2021/06/24 04:38:24;;;;;;;27.25;21.17;;;;;;;22.70;76.29;98562.91;5033799;28;20053;-61
2021/06/24 04:40:50;;;;;;;28.90;19.30;;;;;;;22.90;75.70;98561.50;5033419;28;20061;-61
2021/06/24 04:43:15;;;;;;;28.67;20.55;;;;;;;23.06;74.75;98564.69;5032415;28;20148;-61
2021/06/24 04:45:41;;;;;;;20.67;16.88;;;;;;;23.14;74.08;98570.22;5034926;28;20035;-61
2021/06/24 04:48:07;;;;;;;25.70;18.63;;;;;;;23.21;74.05;98568.84;5031884;28;20079;-61
2021/06/24 04:50:32;;;;;;;23.63;17.90;;;;;;;23.46;73.04;98562.72;5034577;28;20106;-61
2021/06/24 04:52:58;;;;;;;23.52;18.85;;;;;;;23.41;72.45;98559.56;5033126;28;20410;-61
2021/06/24 04:55:23;;;;;;;22.42;18.27;;;;;;;23.56;72.03;98564.53;5034129;28;20033;-61
2021/06/24 04:57:49;;;;;;;26.55;18.05;;;;;;;23.76;71.73;98559.66;5035447;28;20035;-61
2021/06/24 05:00:15;;;;;;;21.38;16.92;;;;;;;23.98;70.99;98572.81;5031908;28;20116;-63
2021/06/24 05:02:41;;;;;;;23.75;17.33;;;;;;;24.07;69.94;98567.72;5034440;28;20064;-62
2021/06/24 05:05:08;;;;;;;23.40;17.33;;;;;;;24.23;69.68;98577.91;5038499;28;20373;-61
2021/06/24 05:07:37;;;;;;;20.67;16.95;;;;;;;24.46;68.48;98566.53;5037589;28;20033;-62
2021/06/24 05:10:04;;;;;;;20.23;16.58;;;;;;;24.57;67.73;98555.19;5036378;28;20061;-61
2021/06/24 05:12:30;;;;;;;21.88;17.13;;;;;;;24.70;67.49;98552.47;5037574;28;20029;-61
2021/06/24 05:14:55;;;;;;;21.38;17.30;;;;;;;24.83;66.91;98558.44;5035823;28;20044;-61
2021/06/24 05:17:21;;;;;;;21.08;16.65;;;;;;;24.72;66.69;98561.06;5035858;28;20023;-61
2021/06/24 05:19:47;;;;;;;22.95;16.33;;;;;;;24.92;66.44;98565.63;5035408;28;20111;-61
2021/06/24 05:22:12;;;;;;;26.95;17.65;;;;;;;25.03;65.73;98560.38;5036660;28;20037;-60
2021/06/24 05:24:41;;;;;;;24.17;18.67;;;;;;;24.98;65.68;98570.38;5040132;28;20124;-61
2021/06/24 05:27:07;;;;;;;20.02;16.85;;;;;;;25.14;65.59;98567.38;5038746;28;20029;-61
2021/06/24 05:29:33;;;;;;;20.70;15.90;;;;;;;25.27;65.03;98562.81;5035541;28;20102;-62
2021/06/24 05:31:58;;;;;;;20.13;17.85;;;;;;;25.33;64.58;98563.16;5036344;28;20429;-62
2021/06/24 05:34:24;;;;;;;23.25;17.55;;;;;;;25.29;64.58;98563.56;5034956;28;20646;-61
2021/06/24 05:36:49;;;;;;;31.30;17.70;;;;;;;25.15;65.22;98575.16;5036868;28;20033;-60
2021/06/24 05:39:14;;;;;;;27.60;18.00;;;;;;;24.94;65.69;98564.56;5033428;28;20037;-61
2021/06/24 05:41:40;;;;;;;29.42;19.45;;;;;;;24.53;66.58;98567.72;5037592;28;20029;-60
2021/06/24 05:44:05;;;;;;;27.02;17.38;;;;;;;24.33;67.47;98570.19;5037379;28;20029;-61
2021/06/24 05:46:31;;;;;;;26.27;18.23;;;;;;;24.36;67.55;98562.94;5034242;28;20282;-62
2021/06/24 05:48:56;;;;;;;34.97;19.48;;;;;;;24.26;67.92;98563.75;5035182;28;20033;-62
2021/06/24 05:51:25;;;;;;;27.13;19.55;;;;;;;24.36;68.12;98562.09;5024055;28;20044;-61
2021/06/24 05:53:51;;;;;;;24.75;17.83;;;;;;;24.28;68.39;98562.69;5035583;28;20382;-61
2021/06/24 05:56:17;;;;;;;29.35;16.60;;;;;;;24.28;67.65;98557.44;5035946;28;20429;-61
2021/06/24 05:58:42;;;;;;;25.38;17.63;;;;;;;24.37;67.87;98556.75;5034752;28;20456;-62
2021/06/24 06:01:08;;;;;;;21.75;16.52;;;;;;;24.26;67.86;98553.28;5035190;28;20107;-62
2021/06/24 06:03:33;;;;;;;21.05;15.20;;;;;;;24.54;66.30;98552.81;5035951;28;20087;-61
2021/06/24 06:05:59;;;;;;;17.55;15.50;;;;;;;24.44;66.38;98555.31;5035484;28;20065;-62
2021/06/24 06:08:27;;;;;;;24.88;15.00;;;;;;;24.71;65.82;98543.66;5036291;28;20037;-61
2021/06/24 06:10:52;;;;;;;16.42;12.95;;;;;;;24.79;65.13;98551.75;5035894;28;20022;-62
2021/06/24 06:13:18;;;;;;;24.20;15.93;;;;;;;24.80;64.31;98561.28;5035920;28;20025;-61
2021/06/24 06:15:48;;;;;;;16.98;13.95;;;;;;;24.74;65.15;98548.69;5035016;28;20029;-61
2021/06/24 06:18:17;;;;;;;18.60;12.23;;;;;;;24.94;64.34;98553.22;5037000;28;20065;-61
2021/06/24 06:20:44;;;;;;;23.08;14.48;;;;;;;24.92;63.49;98552.50;5034343;28;20029;-62
2021/06/24 06:23:11;;;;;;;15.38;12.27;;;;;;;25.14;63.21;98555.09;5036196;28;20355;-61
2021/06/24 06:25:37;;;;;;;18.63;12.60;;;;;;;25.22;63.02;98554.47;5036018;28;20379;-61
2021/06/24 06:28:02;;;;;;;18.27;11.60;;;;;;;25.29;62.39;98560.94;5034969;28;20752;-60
2021/06/24 06:30:28;;;;;;;15.10;11.90;;;;;;;25.37;61.53;98561.97;5036400;28;20401;-61
2021/06/24 06:32:54;;;;;;;16.20;11.35;;;;;;;25.40;61.04;98559.09;5035129;28;20029;-61
2021/06/24 06:35:19;;;;;;;15.82;11.35;;;;;;;25.33;61.51;98557.91;5036004;28;20382;-61
2021/06/24 06:37:45;;;;;;;12.70;10.70;;;;;;;25.38;60.81;98550.50;5034876;28;20068;-61
2021/06/24 06:40:12;;;;;;;13.52;10.02;;;;;;;25.63;60.36;98554.63;5034262;28;20051;-61
2021/06/24 06:42:38;;;;;;;11.95;10.00;;;;;;;25.74;59.10;98554.59;5036905;28;20314;-61
2021/06/24 06:45:05;;;;;;;12.50;9.70;;;;;;;25.68;58.59;98557.72;5035291;28;20040;-61
2021/06/24 06:47:31;;;;;;;13.60;9.82;;;;;;;25.75;58.93;98552.81;5032766;28;20034;-60
2021/06/24 06:49:56;;;;;;;11.48;8.55;;;;;;;25.38;58.88;98554.91;5034407;28;20044;-61
2021/06/24 06:52:22;;;;;;;15.57;9.63;;;;;;;25.69;58.75;98558.56;5033195;28;20026;-61
2021/06/24 06:54:47;;;;;;;12.65;9.20;;;;;;;26.02;57.66;98547.88;5034724;28;20021;-62
2021/06/24 06:57:13;;;;;;;15.27;10.30;;;;;;;26.03;56.70;98556.59;5036430;28;20025;-63
2021/06/24 06:59:38;;;;;;;11.88;8.73;;;;;;;25.95;57.63;98554.63;5034789;28;20033;-64
2021/06/24 07:02:04;;;;;;;13.38;8.32;;;;;;;26.39;56.58;98558.00;5036113;28;20033;-63
2021/06/24 07:04:29;;;;;;;9.55;8.40;;;;;;;26.46;56.19;98559.13;5036801;28;20029;-63
2021/06/24 07:06:54;;;;;;;12.95;8.90;;;;;;;26.30;56.23;98554.34;5034995;28;20703;-64
2021/06/24 07:09:20;;;;;;;15.05;9.00;;;;;;;26.37;55.88;98552.84;5036787;28;20071;-62
2021/06/24 07:11:45;;;;;;;12.38;8.90;;;;;;;26.60;55.66;98564.88;5033553;28;20037;-64
2021/06/24 07:14:11;;;;;;;14.00;8.65;;;;;;;26.77;55.13;98551.13;5035611;28;20037;-63
2021/06/24 07:16:36;;;;;;;12.30;8.48;;;;;;;27.00;54.75;98549.13;5034770;28;20078;-63
2021/06/24 07:19:02;;;;;;;13.23;9.27;;;;;;;27.16;53.84;98548.63;5033601;28;20298;-66
2021/06/24 07:21:27;;;;;;;10.85;8.75;;;;;;;27.05;53.51;98549.56;5033240;28;20267;-63
2021/06/24 07:23:53;;;;;;;9.48;8.48;;;;;;;27.09;53.58;98553.59;5036658;28;20111;-63
2021/06/24 07:26:19;;;;;;;12.80;9.50;;;;;;;27.24;53.78;98552.22;5031711;28;20124;-63
2021/06/24 07:28:44;;;;;;;9.77;8.05;;;;;;;27.26;53.13;98549.47;5033806;28;20037;-62
2021/06/24 07:31:10;;;;;;;12.02;8.07;;;;;;;27.34;52.82;98556.69;5033496;28;20059;-63
2021/06/24 07:33:35;;;;;;;11.68;8.68;;;;;;;27.42;52.70;98556.84;5034430;28;20033;-63
2021/06/24 07:36:02;;;;;;;8.65;7.70;;;;;;;27.73;51.94;98554.97;5036598;28;20075;-63
2021/06/24 07:38:28;;;;;;;11.00;8.50;;;;;;;27.74;51.76;98551.38;5034622;28;20119;-63
2021/06/24 07:40:54;;;;;;;9.05;8.25;;;;;;;27.90;51.26;98560.38;5033844;28;20124;-63
2021/06/24 07:43:19;;;;;;;9.32;7.57;;;;;;;27.94;51.24;98553.84;5035241;28;20032;-63
2021/06/24 07:45:45;;;;;;;11.18;7.78;;;;;;;28.04;50.93;98557.31;5035343;28;20041;-63
2021/06/24 07:48:10;;;;;;;9.43;7.50;;;;;;;28.08;50.72;98561.34;5034540;28;20037;-63
2021/06/24 07:50:37;;;;;;;13.63;9.07;;;;;;;27.89;51.00;98556.06;5032745;28;20076;-63
2021/06/24 07:53:03;;;;;;;13.00;8.52;;;;;;;27.90;50.86;98557.75;5034098;28;20057;-63
2021/06/24 07:55:34;;;;;;;8.60;7.50;;;;;;;27.93;50.93;98564.53;5033619;28;20087;-62
2021/06/24 07:58:05;;;;;;;12.80;8.98;;;;;;;28.20;50.31;98555.94;5034249;28;20234;-63
2021/06/24 08:00:32;;;;;;;9.52;8.63;;;;;;;28.09;50.44;98564.81;5034031;28;20498;-63
2021/06/24 08:02:58;;;;;;;9.77;8.43;;;;;;;28.16;49.97;98568.56;5034201;28;20056;-62
2021/06/24 08:05:23;;;;;;;9.07;7.75;;;;;;;27.99;50.15;98567.44;5035257;28;20107;-63
2021/06/24 08:07:49;;;;;;;10.18;9.10;;;;;;;28.10;49.92;98566.47;5034874;28;20422;-63
2021/06/24 08:10:16;;;;;;;11.38;8.32;;;;;;;28.30;50.00;98568.16;5035274;28;20029;-63
2021/06/24 08:12:43;;;;;;;11.25;8.38;;;;;;;28.31;50.29;98566.31;5023916;28;20204;-64
2021/06/24 08:15:14;;;;;;;9.60;8.77;;;;;;;28.44;49.99;98561.56;5003572;28;20033;-64
2021/06/24 08:17:40;;;;;;;10.77;8.18;;;;;;;28.48;48.97;98560.31;5009538;28;20084;-63
2021/06/24 08:20:07;;;;;;;9.30;8.13;;;;;;;28.59;49.20;98560.97;5011235;28;20046;-63
2021/06/24 08:22:33;;;;;;;10.32;7.88;;;;;;;28.74;48.82;98557.88;5008442;28;20041;-64
2021/06/24 08:24:59;;;;;;;12.20;8.52;;;;;;;28.55;48.93;98561.41;5012629;28;20034;-62
2021/06/24 08:27:25;;;;;;;12.70;9.63;;;;;;;28.44;49.32;98549.22;5014151;28;20025;-62
2021/06/24 08:29:50;;;;;;;8.98;8.15;;;;;;;28.56;49.15;98555.13;5015235;28;20402;-63
2021/06/24 08:32:16;;;;;;;10.68;8.35;;;;;;;28.59;48.78;98558.34;5010508;28;20121;-63
2021/06/24 08:34:41;;;;;;;9.82;8.75;;;;;;;28.67;48.56;98552.34;5014272;28;20041;-63
2021/06/24 08:37:07;;;;;;;10.82;8.07;;;;;;;28.71;49.59;98552.91;5016088;28;20038;-63
2021/06/24 08:39:33;;;;;;;10.35;8.52;;;;;;;28.63;49.18;98544.84;5022093;28;20347;-63
2021/06/24 08:41:58;;;;;;;10.00;8.02;;;;;;;28.60;48.78;98543.34;5017372;28;20397;-63
2021/06/24 08:44:24;;;;;;;12.20;8.27;;;;;;;28.89;48.37;98549.38;5020654;28;20040;-63
2021/06/24 08:46:52;;;;;;;11.38;8.93;;;;;;;29.07;47.46;98538.03;5019865;28;20021;-64
2021/06/24 08:49:25;;;;;;;15.02;8.73;;;;;;;29.22;47.64;98540.00;5020479;28;20033;-63
2021/06/24 08:51:55;;;;;;;9.68;8.73;;;;;;;29.21;47.75;98542.78;5021042;28;20025;-63
2021/06/24 08:54:21;;;;;;;9.05;8.13;;;;;;;29.20;48.07;98539.31;5022055;28;20084;-63
2021/06/24 08:56:47;;;;;;;10.63;9.55;;;;;;;29.29;48.16;98541.09;5022448;28;20306;-62
2021/06/24 08:59:13;;;;;;;12.18;8.70;;;;;;;29.38;47.88;98542.00;5022285;28;20025;-63
2021/06/24 09:01:53;;;;;;;12.18;7.68;;;;;;;29.37;47.69;98542.97;5020111;28;20040;-63
2021/06/24 09:04:24;;;;;;;10.38;9.23;;;;;;;29.42;47.42;98546.84;5017712;28;20036;-64
2021/06/24 09:06:51;;;;;;;8.63;7.72;;;;;;;29.47;47.37;98541.13;5019269;28;20043;-63
2021/06/24 09:09:24;;;;;;;12.70;8.90;;;;;;;29.62;47.56;98542.25;5021790;28;20041;-63
2021/06/24 09:12:09;;;;;;;10.77;8.57;;;;;;;29.41;47.69;98549.63;5020315;28;20113;-63
2021/06/24 09:14:59;;;;;;;8.20;7.63;;;;;;;29.45;48.22;98540.44;5018721;28;20041;-63
2021/06/24 09:17:42;;;;;;;10.05;7.97;;;;;;;29.48;47.89;98540.13;5022531;28;20030;-63
2021/06/24 09:20:22;;;;;;;12.55;8.90;;;;;;;29.38;47.46;98544.66;4998808;28;20096;-63
2021/06/24 09:23:05;;;;;;;11.15;8.77;;;;;;;29.21;47.84;98538.34;4999815;28;20044;-62
2021/06/24 09:25:30;;;;;;;11.45;7.97;;;;;;;29.40;47.49;98530.34;5000813;28;20026;-64
2021/06/24 09:27:56;;;;;;;8.88;7.97;;;;;;;29.46;47.10;98537.63;5000971;28;20030;-63
2021/06/24 09:30:29;;;;;;;9.55;8.45;;;;;;;29.69;46.73;98540.66;5001683;28;20524;-63
2021/06/24 09:32:54;;;;;;;8.95;8.10;;;;;;;29.79;46.87;98545.88;5002352;28;20026;-63
2021/06/24 09:35:30;;;;;;;8.75;7.88;;;;;;;29.90;47.19;98540.38;5003196;28;20088;-63
2021/06/24 09:38:10;;;;;;;11.50;8.68;;;;;;;29.76;46.75;98544.34;5002589;28;20022;-63
2021/06/24 09:40:37;;;;;;;10.75;8.57;;;;;;;29.85;46.84;98545.25;4999919;28;20018;-64
2021/06/24 09:43:03;;;;;;;11.95;8.55;;;;;;;29.73;46.67;98542.03;4999965;28;20033;-63
2021/06/24 09:45:28;;;;;;;9.60;8.60;;;;;;;29.81;46.55;98538.63;4999384;28;20026;-64
2021/06/24 09:48:11;;;;;;;10.02;9.07;;;;;;;29.69;46.92;98534.56;5001957;28;20025;-63
2021/06/24 09:50:38;;;;;;;9.32;8.25;;;;;;;29.84;48.52;98535.66;5000059;28;20035;-64
2021/06/24 09:53:15;;;;;;;10.50;8.88;;;;;;;29.96;46.29;98533.66;4998469;28;20128;-63
2021/06/24 09:55:41;;;;;;;9.73;8.43;;;;;;;30.07;46.28;98536.88;4999188;28;20041;-65
2021/06/24 09:58:11;;;;;;;10.25;9.18;;;;;;;29.96;46.34;98537.09;4997752;28;20030;-64
2021/06/24 10:00:48;;;;;;;13.30;9.15;;;;;;;30.00;46.53;98535.00;4999055;28;20033;-62
2021/06/24 10:03:14;;;;;;;14.02;8.52;;;;;;;29.97;46.93;98541.41;4998624;28;20290;-63
2021/06/24 10:05:40;;;;;;;9.32;8.38;;;;;;;29.82;47.61;98541.13;4998823;28;20395;-63
2021/06/24 10:08:07;;;;;;;10.35;9.38;;;;;;;30.12;46.91;98534.63;4998473;28;20101;-63
2021/06/24 10:10:33;;;;;;;11.90;9.52;;;;;;;30.21;46.45;98530.22;4999785;28;20100;-64
2021/06/24 10:12:59;;;;;;;9.50;8.70;;;;;;;30.53;46.88;98524.31;4999249;28;20096;-64
2021/06/24 10:15:25;;;;;;;10.25;9.32;;;;;;;30.19;45.95;98517.13;4997044;28;20022;-63
2021/06/24 10:17:56;;;;;;;12.02;10.82;;;;;;;29.80;46.66;98515.81;4999597;28;20038;-63
2021/06/24 10:20:23;;;;;;;10.10;9.05;;;;;;;29.79;47.54;98517.63;5020411;28;20034;-63
2021/06/24 10:22:58;;;;;;;15.20;10.13;;;;;;;29.85;48.75;98513.53;5018262;28;20068;-63
2021/06/24 10:25:25;;;;;;;12.35;9.40;;;;;;;30.28;47.99;98510.91;5020127;28;20058;-64
2021/06/24 10:27:54;;;;;;;15.23;8.95;;;;;;;30.37;47.62;98503.84;5018024;28;20034;-62
2021/06/24 10:30:21;;;;;;;14.93;9.95;;;;;;;30.62;46.04;98503.00;5017411;28;20330;-63
2021/06/24 10:33:01;;;;;;;12.98;9.60;;;;;;;30.84;45.88;98498.97;5018821;28;20048;-63
2021/06/24 10:35:29;;;;;;;10.63;8.90;;;;;;;30.57;46.24;98492.06;5017734;28;20456;-63
2021/06/24 10:37:56;;;;;;;10.88;9.52;;;;;;;30.74;46.19;98499.09;5019584;28;20033;-62
2021/06/24 10:40:24;;;;;;;11.63;9.57;;;;;;;30.74;45.40;98508.84;5016756;28;20068;-62
2021/06/24 10:42:52;;;;;;;14.75;11.60;;;;;;;30.33;45.67;98508.63;5017163;28;20037;-64
2021/06/24 10:45:19;;;;;;;12.10;9.00;;;;;;;30.51;45.85;98494.53;5016660;28;20108;-64
2021/06/24 10:47:44;;;;;;;11.35;9.35;;;;;;;30.79;45.50;98496.81;5019172;28;20037;-63
2021/06/24 10:50:32;;;;;;;11.13;9.27;;;;;;;31.09;44.40;98498.09;5019494;28;20088;-63
2021/06/24 10:52:58;;;;;;;14.02;10.18;;;;;;;30.95;44.19;98487.25;5017870;28;20679;-63
2021/06/24 10:55:43;;;;;;;13.15;11.75;;;;;;;31.05;44.93;98491.47;5017124;28;20470;-63
2021/06/24 10:58:18;;;;;;;15.25;10.20;;;;;;;31.22;44.16;98487.84;5017329;28;20021;-64
2021/06/24 11:00:45;;;;;;;12.40;10.10;;;;;;;31.36;44.96;98489.00;5018221;28;20053;-63
2021/06/24 11:03:12;;;;;;;13.20;10.70;;;;;;;31.00;44.44;98482.31;5017531;28;20065;-63
2021/06/24 11:05:48;;;;;;;10.82;9.65;;;;;;;31.07;44.86;98486.81;5015831;28;20040;-65
2021/06/24 11:08:27;;;;;;;13.45;10.40;;;;;;;31.34;44.41;98479.59;5015437;28;20022;-63
2021/06/24 11:10:57;;;;;;;12.65;10.93;;;;;;;31.63;43.86;98480.78;5016352;28;20038;-64
2021/06/24 11:16:19;;;;;;;12.70;10.95;;;;;;;31.68;45.00;98478.47;5015177;28;20038;-62
2021/06/24 11:18:47;;;;;;;11.43;10.15;;;;;;;31.91;46.02;98477.81;5004120;28;20176;-64
2021/06/24 11:21:28;;;;;;;11.65;10.40;;;;;;;32.22;43.66;98480.59;5003680;28;20061;-63
2021/06/24 11:24:07;;;;;;;16.40;12.18;;;;;;;31.92;44.63;98474.97;5000873;28;20038;-62